• Join FlightAware (Why Join?)
  • Login
  • US Flag 
06:59PM EDT


 

Airport Tracker/Info


-or-


 

Live Flight TrackerFlight Track Log ✈ UAL4274 ✈ 13-Apr-2013 ✈ KCLT - KIAH

Flight Track Log - Related Links

Times and Time Zones

All times are in EDT time to prevent confusion due to time zone crossing. See the UAL4274 flight status page for this flight to view local times or setup timezone preferences in your user account.

Time Position Orientation Groundspeed Altitude Reporting Facility
EDT Latitude Longitude Course Direction KTS MPH feet Rate Location/Type
05:53AM 35.2000 -80.9658 228° Southwest 167 192 1,400  Level Atlanta Center
05:54AM 35.1494 -81.0336 228° Southwest 224 258 3,400 1,860 Climbing Atlanta Center
05:55AM 35.1094 -81.1036 235° Southwest 269 310 5,800 2,160 Climbing Atlanta Center
05:56AM 35.1056 -81.1142 246° West 246 283 6,100 2,220 Climbing Atlanta Center
05:57AM 35.0867 -81.1958 254° West 262 302 8,600 2,400 Climbing Atlanta Center
05:58AM 35.0694 -81.2753 255° West 262 302 11,000 1,740 Climbing Atlanta Center
05:59AM 35.0506 -81.3594 255° West 262 302 12,100 1,080 Climbing Atlanta Center
06:00AM 35.0275 -81.4567 254° West 287 330 13,200 1,020 Climbing Atlanta Center
06:01AM 35.0008 -81.5692 254° West 306 352 14,200 1,200 Climbing Atlanta Center
06:02AM 34.9736 -81.6714 252° West 316 364 15,700 1,500 Climbing Atlanta Center
06:03AM 34.9419 -81.7736 249° West 316 364 17,200 1,500 Climbing Atlanta Center
06:04AM 34.9000 -81.8683 242° Southwest 316 364 18,700 1,380 Climbing Atlanta Center
06:05AM 34.8575 -81.9428 235° Southwest 316 364 20,000 1,380 Climbing Atlanta Center
06:06AM 34.8067 -82.0275 234° Southwest 316 364 21,500 1,260 Climbing Atlanta Center
06:07AM 34.7561 -82.1225 237° Southwest 322 371 22,600 1,020 Climbing Atlanta Center
06:08AM 34.7031 -82.2119 234° Southwest 322 371 23,600 960 Climbing Atlanta Center
06:09AM 34.6503 -82.3042 235° Southwest 334 384 24,600 900 Climbing Atlanta Center
06:10AM 34.5972 -82.3986 236° Southwest 341 392 25,500 900 Climbing Atlanta Center
06:11AM 34.5422 -82.4931 235° Southwest 341 392 26,500 960 Climbing Atlanta Center
06:12AM 34.4889 -82.5872 236° Southwest 341 392 27,500 1,020 Climbing Atlanta Center
06:13AM 34.4275 -82.6864 233° Southwest 341 392 28,600 1,020 Climbing Atlanta Center
06:14AM 34.3764 -82.7778 236° Southwest 335 386 29,600 960 Climbing Atlanta Center
06:15AM 34.3208 -82.8667 233° Southwest 340 391 30,600 960 Climbing Atlanta Center
06:16AM 34.2736 -82.9578 238° Southwest 335 386 31,600 960 Climbing Atlanta Center
06:17AM 34.2181 -83.0514 234° Southwest 340 391 32,600 900 Climbing Atlanta Center
06:18AM 34.1667 -83.1400 235° Southwest 335 386 33,500 960 Climbing Atlanta Center
06:19AM 34.1108 -83.2283 233° Southwest 335 386 34,600 960 Climbing Atlanta Center
06:20AM 34.0592 -83.3167 235° Southwest 335 386 35,500 660 Climbing Atlanta Center
06:21AM 34.0139 -83.3947 235° Southwest 330 380 36,000 240 Climbing Atlanta Center
06:22AM 33.9619 -83.4828 235° Southwest 336 387 36,000  Level Atlanta Center
06:23AM 33.9061 -83.5783 235° Southwest 341 392 36,000  Level Atlanta Center
06:24AM 33.8500 -83.6736 235° Southwest 346 398 36,000  Level Atlanta Center
06:25AM 33.7919 -83.7714 234° Southwest 354 407 36,000  Level Atlanta Center
06:26AM 33.7294 -83.8764 234° Southwest 359 413 36,000  Level Atlanta Center
06:27AM 33.6711 -83.9714 234° Southwest 359 413 36,000  Level Atlanta Center
06:28AM 33.6169 -84.0636 235° Southwest 359 413 36,000  Level Atlanta Center
06:29AM 33.5583 -84.1608 234° Southwest 359 413 36,000  Level Atlanta Center
06:30AM 33.5019 -84.2556 234° Southwest 359 413 36,000  Level Atlanta Center
06:31AM 33.4453 -84.3475 234° Southwest 359 413 36,000  Level Atlanta Center
06:32AM 33.3886 -84.4444 235° Southwest 359 413 36,000  Level Atlanta Center
06:33AM 33.3383 -84.5286 234° Southwest 359 413 36,000  Level Atlanta Center
06:34AM 33.2814 -84.6253 235° Southwest 359 413 36,000  Level Atlanta Center
06:35AM 33.2225 -84.7167 232° Southwest 358 412 36,000  Level Atlanta Center
06:36AM 33.1656 -84.8156 235° Southwest 358 412 36,000  Level Atlanta Center
06:37AM 33.1067 -84.9092 233° Southwest 358 412 36,000  Level Atlanta Center
06:38AM 33.0431 -85.0153 234° Southwest 364 419 36,000  Level Atlanta Center
06:39AM 32.9839 -85.1086 233° Southwest 364 419 36,000  Level Atlanta Center
06:40AM 32.9267 -85.2019 234° Southwest 357 411 36,000  Level Atlanta Center
06:41AM 32.8672 -85.2953 233° Southwest 357 411 36,000  Level Atlanta Center
06:42AM 32.8058 -85.3908 233° Southwest 362 417 36,000  Level Atlanta Center
06:43AM 32.7464 -85.4886 234° Southwest 362 417 36,000  Level Atlanta Center
06:44AM 32.6844 -85.5864 233° Southwest 362 417 36,000  Level Atlanta Center
06:45AM 32.6247 -85.6839 234° Southwest 367 422 36,000  Level Atlanta Center
06:46AM 32.5631 -85.7789 232° Southwest 367 422 36,000  Level Atlanta Center
06:47AM 32.5031 -85.8736 233° Southwest 383 441 36,000  Level Atlanta Center
06:48AM 32.4411 -85.9733 234° Southwest 390 449 36,000  Level Atlanta Center
06:49AM 32.3789 -86.0753 234° Southwest 390 449 36,000  Level Atlanta Center
06:50AM 32.3189 -86.1697 233° Southwest 385 443 36,000  Level Atlanta Center
06:51AM 32.2525 -86.2714 232° Southwest 385 443 36,000  Level Atlanta Center
06:52AM 32.1881 -86.3728 233° Southwest 385 443 36,000  Level Atlanta Center
06:53AM 32.1192 -86.4739 231° Southwest 369 425 36,000  Level Atlanta Center
06:54AM 32.0525 -86.5703 231° Southwest 369 425 36,000  Level Atlanta Center
06:55AM 31.9839 -86.6614 228° Southwest 374 430 36,000  Level Atlanta Center
06:56AM 31.9175 -86.7450 227° Southwest 384 442 36,000  Level Atlanta Center
06:57AM 31.8486 -86.8383 229° Southwest 384 442 36,000  Level Atlanta Center
06:58AM 31.7836 -86.9317 231° Southwest 384 442 36,000  Level Atlanta Center
06:59AM 31.6681 -87.0869 229° Southwest 371 427 36,000  Level Houston Center
07:00AM 31.6000 -87.1800 229° Southwest 374 430 36,000  Level Houston Center
07:01AM 31.5319 -87.2722 229° Southwest 374 430 36,000  Level Houston Center
07:02AM 31.4644 -87.3653 230° Southwest 375 432 36,000  Level Houston Center
07:03AM 31.3964 -87.4572 229° Southwest 374 430 36,000  Level Houston Center
07:04AM 31.3275 -87.5508 229° Southwest 376 433 36,000  Level Houston Center
07:05AM 31.2606 -87.6469 231° Southwest 382 440 36,000  Level Houston Center
07:06AM 31.2200 -87.7600 247° West 379 436 36,000  Level Houston Center
07:07AM 31.1781 -87.8811 248° West 384 442 36,000  Level Houston Center
07:08AM 31.1378 -87.9953 248° West 383 441 36,000  Level Houston Center
07:10AM 31.0975 -88.1100 248° West 382 440 36,000  Level Houston Center
07:11AM 31.0550 -88.2256 247° West 388 447 36,000  Level Houston Center
07:12AM 31.0125 -88.3397 247° West 386 444 36,000  Level Houston Center
07:13AM 30.9728 -88.4556 248° West 385 443 36,000  Level Houston Center
07:14AM 30.9322 -88.5683 247° West 379 436 36,000  Level Houston Center
07:15AM 30.8883 -88.6897 247° West 384 442 36,000  Level Houston Center
07:16AM 30.8475 -88.8033 247° West 380 437 36,000  Level Houston Center
07:17AM 30.8047 -88.9175 246° West 385 443 36,000  Level Houston Center
07:18AM 30.7664 -89.0244 247° West 383 441 36,000  Level Houston Center
07:19AM 30.7175 -89.1606 247° West 383 441 36,000  Level Houston Center
07:20AM 30.6769 -89.2758 248° West 384 442 36,000  Level Houston Center
07:21AM 30.6350 -89.3886 247° West 384 442 36,000  Level Houston Center
07:22AM 30.5944 -89.5028 248° West 384 442 36,000  Level Houston Center
07:23AM 30.5517 -89.6156 246° West 384 442 36,000 -60 Level Houston Center
07:24AM 30.5111 -89.7283 247° West 385 443 35,900  Descending Houston Center
07:25AM 30.4683 -89.8400 246° West 387 445 36,000  Climbing Houston Center
07:26AM 30.4267 -89.9514 247° West 386 444 36,000  Level Houston Center
07:27AM 30.3850 -90.0639 247° West 388 447 36,000  Level Houston Center
07:28AM 30.3417 -90.1767 246° West 388 447 36,000  Level Houston Center
07:29AM 30.2989 -90.2906 247° West 389 448 36,000  Level Houston Center
07:30AM 30.2556 -90.4044 246° West 388 447 36,000  Level Houston Center
07:31AM 30.2036 -90.5414 246° West 390 449 36,000  Level Houston Center
07:32AM 30.1594 -90.6558 246° West 391 450 36,000  Level Houston Center
07:33AM 30.1167 -90.7686 246° West 386 444 36,000  Level Houston Center
07:34AM 30.0753 -90.8778 246° West 374 430 36,000  Level Houston Center
07:35AM 30.0333 -90.9867 246° West 373 429 36,000  Level Houston Center
07:36AM 29.9906 -91.0978 246° West 377 434 36,000  Level Houston Center
07:37AM 29.9461 -91.2097 245° Southwest 384 442 36,000  Level Houston Center
07:38AM 29.9044 -91.3206 247° West 379 436 36,000  Level Houston Center
07:39AM 29.8378 -91.4106 230° Southwest 370 426 36,000  Level Houston Center
07:40AM 29.7622 -91.4903 222° Southwest 369 425 36,000  Level Houston Center
07:41AM 29.6897 -91.5683 223° Southwest 360 414 36,000  Level Houston Center
07:42AM 29.6158 -91.6444 222° Southwest 356 410 36,000  Level Houston Center
07:43AM 29.5419 -91.7228 223° Southwest 353 406 36,000  Level Houston Center
07:44AM 29.4700 -91.8000 223° Southwest 354 407 36,000  Level Houston Center
07:45AM 29.4569 -91.9064 262° West 342 394 36,000  Level Houston Center
07:46AM 29.4564 -92.0194 270° West 352 405 36,000  Level Houston Center
07:47AM 29.4569 -92.1381 270° West 368 423 36,000  Level Houston Center
07:48AM 29.4569 -92.2558 270° West 370 426 36,000  Level Houston Center
07:49AM 29.4572 -92.3725 270° West 366 421 36,000  Level Houston Center
07:50AM 29.4572 -92.4911 270° West 370 426 36,000  Level Houston Center
07:51AM 29.4636 -92.6111 274° West 377 434 36,000  Level Houston Center
07:52AM 29.4697 -92.7347 273° West 386 444 36,000  Level Houston Center
07:53AM 29.4744 -92.8578 273° West 387 445 36,000 -480 Level Houston Center
07:54AM 29.4808 -93.0047 273° West 385 443 35,100 -1,500 Descending Houston Center
07:55AM 29.4872 -93.1294 273° West 390 449 33,000 -2,100 Descending Houston Center
07:56AM 29.4925 -93.2567 273° West 397 457 30,900 -2,160 Descending Houston Center
07:57AM 29.4969 -93.3844 272° West 399 459 28,700 -2,160 Descending Houston Center
07:58AM 29.5022 -93.5158 273° West 407 468 26,600 -2,220 Descending Houston Center
07:59AM 29.5075 -93.6475 273° West 410 472 24,300 -2,220 Descending Houston Center
08:00AM 29.5131 -93.7800 273° West 414 476 22,100 -2,340 Descending Houston Center
08:01AM 29.5181 -93.9075 273° West 407 468 19,700 -2,400 Descending Houston Center
08:02AM 29.5211 -94.0242 272° West 382 440 17,300 -2,520 Descending Houston Center
08:02AM 29.5225 -94.0606 273° West 364 419 16,500 -2,220 Descending Houston Center
08:03AM 29.5264 -94.1392 273° West 363 418 15,100 -2,100 Descending Houston Center
08:03AM 29.5264 -94.1828 270° West 364 419 14,400 -1,380 Descending Houston Center
08:04AM 29.5303 -94.2531 274° West 364 419 13,700 -1,020 Descending Houston Center
08:05AM 29.5406 -94.3617 276° West 336 387 12,700 -1,200 Descending Houston Center
08:06AM 29.5772 -94.4469 296° West 302 348 11,300 -1,620 Descending Houston Center
08:07AM 29.6128 -94.5289 297° West 290 334 9,500 -1,980 Descending Houston Center
08:07AM 29.6275 -94.5639 296° West 290 334 8,800 -1,800 Descending Houston Center
08:08AM 29.6483 -94.6117 297° West 291 335 7,700 -1,800 Descending Houston Center
08:08AM 29.6772 -94.6442 316° Northwest 304 350 7,000 -1,680 Descending Houston Center
08:09AM 29.7114 -94.6736 323° Northwest 301 346 6,000 -1,680 Descending Houston Center
08:09AM 29.7381 -94.7086 311° West 288 331 5,300 -1,620 Descending Houston Center
08:10AM 29.7758 -94.7536 314° West 286 329 4,400 -1,200 Descending Houston Center
08:10AM 29.7928 -94.7739 314° West 282 325 4,100 -420 Descending Houston Center
08:11AM 29.8308 -94.8183 315° West 284 327 4,000  Descending Houston Center
08:11AM 29.8472 -94.8369 315° West 279 321 4,100  Climbing Houston Center
08:12AM 29.8878 -94.8797 318° Northwest 283 326 4,000  Descending Houston Center
08:13AM 29.9128 -94.9083 315° West 291 335 4,100  Climbing Houston Center
08:13AM 29.9458 -94.9447 316° Northwest 290 334 4,000  Descending Houston Center
08:13AM 29.9667 -94.9692 315° West 291 335 4,100  Climbing Houston Center
08:14AM 29.9908 -95.0183 300° West 289 333 4,000  Descending Houston Center
08:15AM 29.9942 -95.0597 275° West 289 333 4,100 -300 Climbing Houston Center
08:15AM 29.9936 -95.1081 269° West 284 327 3,700 -900 Descending Houston Center
08:16AM 29.9919 -95.1492 267° West 276 318 3,200 -1,380 Descending Houston Center
08:16AM 29.9936 -95.1939 272° West 274 315 2,300 -1,440 Descending Houston Center